Deal, United Kingdom
Current Conditions -  °F | °C
As of 6:50 PM on Sunday 23 Nov 2014 (Local Time) from EGMD Reporting Station
Light Rain Light Rain  
Wind Chill: 40°   Ceiling: 1000
Heat Index: 46°   Visibility: 4mi
Dew Point: 45°   Wind: 15mph
Humidity: 93%   Direction: 360°N
Pressure: 30.06"   Gusts: NA
Location:  51.22°N, 1.4°E
Report Text: EGMD 231850Z 36013KT 6000 -RA BKN010 BKN020 08/07 Q1018
Loading
Personal Weather Stations






























Interactive Weather Map New forecast layout! Learn more

10-Day Weather Forecast

Advertisements
Track Severe Weather on mobile